sensor_id;sensor_type;location;lat;lon;timestamp;pressure;altitude;pressure_sealevel;temperature
24586;BMP280;12743;52.262;6.172;2022-11-15T00:01:50;100394.91;;;6.67
24586;BMP280;12743;52.262;6.172;2022-11-15T00:04:34;100353.69;;;6.47
24586;BMP280;12743;52.262;6.172;2022-11-15T00:07:18;100380.00;;;6.67
24586;BMP280;12743;52.262;6.172;2022-11-15T00:10:03;100378.63;;;6.70
24586;BMP280;12743;52.262;6.172;2022-11-15T00:12:47;100374.19;;;6.70
24586;BMP280;12743;52.262;6.172;2022-11-15T00:15:31;100361.59;;;6.64
24586;BMP280;12743;52.262;6.172;2022-11-15T00:18:15;100382.66;;;6.76
24586;BMP280;12743;52.262;6.172;2022-11-15T00:21:05;100372.72;;;6.78
24586;BMP280;12743;52.262;6.172;2022-11-15T00:23:49;100374.84;;;6.76
24586;BMP280;12743;52.262;6.172;2022-11-15T00:26:34;100368.66;;;6.63
24586;BMP280;12743;52.262;6.172;2022-11-15T00:29:17;100377.16;;;6.77
24586;BMP280;12743;52.262;6.172;2022-11-15T00:32:01;100381.31;;;6.78
24586;BMP280;12743;52.262;6.172;2022-11-15T00:34:45;100375.00;;;6.79
24586;BMP280;12743;52.262;6.172;2022-11-15T00:37:29;100362.41;;;6.81
24586;BMP280;12743;52.262;6.172;2022-11-15T00:40:14;100366.25;;;6.84
24586;BMP280;12743;52.262;6.172;2022-11-15T00:42:58;100367.50;;;6.87
24586;BMP280;12743;52.262;6.172;2022-11-15T00:45:41;100354.16;;;6.88
24586;BMP280;12743;52.262;6.172;2022-11-15T00:48:26;100354.94;;;6.89
24586;BMP280;12743;52.262;6.172;2022-11-15T00:51:10;100349.69;;;6.89
24586;BMP280;12743;52.262;6.172;2022-11-15T00:53:54;100309.41;;;6.64
24586;BMP280;12743;52.262;6.172;2022-11-15T00:56:38;100350.94;;;6.91
24586;BMP280;12743;52.262;6.172;2022-11-15T00:59:22;100340.94;;;6.93
24586;BMP280;12743;52.262;6.172;2022-11-15T01:02:06;100347.09;;;6.97
24586;BMP280;12743;52.262;6.172;2022-11-15T01:04:50;100349.88;;;7.01
24586;BMP280;12743;52.262;6.172;2022-11-15T01:07:34;100354.03;;;7.02
24586;BMP280;12743;52.262;6.172;2022-11-15T01:10:18;100349.25;;;7.04
24586;BMP280;12743;52.262;6.172;2022-11-15T01:13:02;100305.44;;;6.83
24586;BMP280;12743;52.262;6.172;2022-11-15T01:15:46;100350.34;;;7.11
24586;BMP280;12743;52.262;6.172;2022-11-15T01:18:31;100345.13;;;7.11
24586;BMP280;12743;52.262;6.172;2022-11-15T01:21:17;100341.59;;;7.16
24586;BMP280;12743;52.262;6.172;2022-11-15T01:24:02;100344.81;;;7.13
24586;BMP280;12743;52.262;6.172;2022-11-15T01:26:46;100333.59;;;7.12
24586;BMP280;12743;52.262;6.172;2022-11-15T01:29:30;100336.69;;;7.14
24586;BMP280;12743;52.262;6.172;2022-11-15T01:32:14;100337.09;;;7.16
24586;BMP280;12743;52.262;6.172;2022-11-15T01:34:58;100334.50;;;7.16
24586;BMP280;12743;52.262;6.172;2022-11-15T01:37:42;100315.47;;;7.16
24586;BMP280;12743;52.262;6.172;2022-11-15T01:40:26;100293.81;;;6.98
24586;BMP280;12743;52.262;6.172;2022-11-15T01:43:33;100320.22;;;7.22
24586;BMP280;12743;52.262;6.172;2022-11-15T01:49:12;100305.81;;;7.25
24586;BMP280;12743;52.262;6.172;2022-11-15T01:52:00;100304.72;;;7.26
24586;BMP280;12743;52.262;6.172;2022-11-15T01:54:46;100306.38;;;7.30
24586;BMP280;12743;52.262;6.172;2022-11-15T01:57:30;100302.72;;;7.31
24586;BMP280;12743;52.262;6.172;2022-11-15T02:00:15;100304.22;;;7.32
24586;BMP280;12743;52.262;6.172;2022-11-15T02:02:59;100295.34;;;7.33
24586;BMP280;12743;52.262;6.172;2022-11-15T02:05:43;100301.78;;;7.36
24586;BMP280;12743;52.262;6.172;2022-11-15T02:08:28;100299.66;;;7.38
24586;BMP280;12743;52.262;6.172;2022-11-15T02:11:12;100296.72;;;7.39
24586;BMP280;12743;52.262;6.172;2022-11-15T02:13:57;100300.41;;;7.38
24586;BMP280;12743;52.262;6.172;2022-11-15T02:17:16;100299.16;;;7.44
24586;BMP280;12743;52.262;6.172;2022-11-15T02:23:36;100262.16;;;7.25
24586;BMP280;12743;52.262;6.172;2022-11-15T02:26:48;100301.31;;;7.51
24586;BMP280;12743;52.262;6.172;2022-11-15T02:30:00;100272.44;;;7.39
24586;BMP280;12743;52.262;6.172;2022-11-15T02:36:01;100290.22;;;7.54
24586;BMP280;12743;52.262;6.172;2022-11-15T02:39:01;100253.38;;;7.38
24586;BMP280;12743;52.262;6.172;2022-11-15T02:42:01;100280.97;;;7.65
24586;BMP280;12743;52.262;6.172;2022-11-15T02:44:47;100275.44;;;7.67
24586;BMP280;12743;52.262;6.172;2022-11-15T02:47:35;100279.59;;;7.68
24586;BMP280;12743;52.262;6.172;2022-11-15T02:50:25;100285.72;;;7.72
24586;BMP280;12743;52.262;6.172;2022-11-15T02:53:09;100277.16;;;7.71
24586;BMP280;12743;52.262;6.172;2022-11-15T02:55:55;100251.66;;;7.60
24586;BMP280;12743;52.262;6.172;2022-11-15T02:58:57;100262.97;;;7.81
24586;BMP280;12743;52.262;6.172;2022-11-15T03:08:44;100265.06;;;7.87
24586;BMP280;12743;52.262;6.172;2022-11-15T03:11:17;100256.75;;;7.94
24586;BMP280;12743;52.262;6.172;2022-11-15T03:14:17;100254.78;;;7.91
24586;BMP280;12743;52.262;6.172;2022-11-15T03:17:11;100244.88;;;7.96
24586;BMP280;12743;52.262;6.172;2022-11-15T03:19:59;100241.94;;;7.98
24586;BMP280;12743;52.262;6.172;2022-11-15T03:22:45;100238.53;;;8.06
24586;BMP280;12743;52.262;6.172;2022-11-15T03:25:32;100242.56;;;8.03
24586;BMP280;12743;52.262;6.172;2022-11-15T03:28:30;100229.56;;;8.16
24586;BMP280;12743;52.262;6.172;2022-11-15T03:31:18;100231.53;;;8.19
24586;BMP280;12743;52.262;6.172;2022-11-15T03:37:16;100233.00;;;8.28
24586;BMP280;12743;52.262;6.172;2022-11-15T03:40:02;100241.34;;;8.30
24586;BMP280;12743;52.262;6.172;2022-11-15T03:42:50;100205.59;;;8.14
24586;BMP280;12743;52.262;6.172;2022-11-15T03:45:43;100231.00;;;8.34
24586;BMP280;12743;52.262;6.172;2022-11-15T03:48:30;100222.84;;;8.35
24586;BMP280;12743;52.262;6.172;2022-11-15T03:51:17;100235.91;;;8.35
24586;BMP280;12743;52.262;6.172;2022-11-15T03:54:03;100231.88;;;8.38
24586;BMP280;12743;52.262;6.172;2022-11-15T03:56:47;100225.16;;;8.37
24586;BMP280;12743;52.262;6.172;2022-11-15T03:59:31;100218.78;;;8.38
24586;BMP280;12743;52.262;6.172;2022-11-15T04:02:16;100225.56;;;8.39
24586;BMP280;12743;52.262;6.172;2022-11-15T04:05:00;100228.47;;;8.46
24586;BMP280;12743;52.262;6.172;2022-11-15T04:07:44;100231.19;;;8.49
24586;BMP280;12743;52.262;6.172;2022-11-15T04:10:28;100226.72;;;8.50
24586;BMP280;12743;52.262;6.172;2022-11-15T04:13:12;100234.25;;;8.51
24586;BMP280;12743;52.262;6.172;2022-11-15T04:15:56;100238.72;;;8.51
24586;BMP280;12743;52.262;6.172;2022-11-15T04:18:40;100237.47;;;8.57
24586;BMP280;12743;52.262;6.172;2022-11-15T04:21:24;100221.16;;;8.51
24586;BMP280;12743;52.262;6.172;2022-11-15T04:24:26;100235.97;;;8.68
24586;BMP280;12743;52.262;6.172;2022-11-15T04:27:11;100230.63;;;8.64
24586;BMP280;12743;52.262;6.172;2022-11-15T04:29:56;100238.94;;;8.66
24586;BMP280;12743;52.262;6.172;2022-11-15T04:32:40;100238.16;;;8.66
24586;BMP280;12743;52.262;6.172;2022-11-15T04:35:24;100247.34;;;8.72
24586;BMP280;12743;52.262;6.172;2022-11-15T04:38:10;100230.63;;;8.64
24586;BMP280;12743;52.262;6.172;2022-11-15T04:40:54;100240.91;;;8.69
24586;BMP280;12743;52.262;6.172;2022-11-15T04:43:38;100246.28;;;8.73
24586;BMP280;12743;52.262;6.172;2022-11-15T04:46:25;100214.03;;;8.60
24586;BMP280;12743;52.262;6.172;2022-11-15T04:49:09;100216.13;;;8.67
24586;BMP280;12743;52.262;6.172;2022-11-15T04:51:53;100223.16;;;8.75
24586;BMP280;12743;52.262;6.172;2022-11-15T04:54:37;100239.63;;;8.76
24586;BMP280;12743;52.262;6.172;2022-11-15T04:57:21;100246.50;;;8.80
24586;BMP280;12743;52.262;6.172;2022-11-15T05:00:08;100237.81;;;8.88
24586;BMP280;12743;52.262;6.172;2022-11-15T05:02:52;100240.56;;;8.92
24586;BMP280;12743;52.262;6.172;2022-11-15T05:05:55;100219.31;;;8.93
24586;BMP280;12743;52.262;6.172;2022-11-15T05:08:39;100216.22;;;8.91
24586;BMP280;12743;52.262;6.172;2022-11-15T05:11:23;100220.63;;;8.99
24586;BMP280;12743;52.262;6.172;2022-11-15T05:14:07;100224.44;;;9.02
24586;BMP280;12743;52.262;6.172;2022-11-15T05:16:51;100220.91;;;8.98
24586;BMP280;12743;52.262;6.172;2022-11-15T05:19:35;100225.66;;;9.04
24586;BMP280;12743;52.262;6.172;2022-11-15T05:22:20;100219.44;;;9.09
24586;BMP280;12743;52.262;6.172;2022-11-15T05:25:05;100225.75;;;9.08
24586;BMP280;12743;52.262;6.172;2022-11-15T05:27:49;100227.53;;;9.16
24586;BMP280;12743;52.262;6.172;2022-11-15T05:30:33;100222.72;;;9.18
24586;BMP280;12743;52.262;6.172;2022-11-15T05:33:18;100214.88;;;9.18
24586;BMP280;12743;52.262;6.172;2022-11-15T05:39:11;100209.63;;;9.18
24586;BMP280;12743;52.262;6.172;2022-11-15T05:42:09;100221.00;;;9.34
24586;BMP280;12743;52.262;6.172;2022-11-15T05:44:54;100226.06;;;9.39
24586;BMP280;12743;52.262;6.172;2022-11-15T05:47:38;100220.50;;;9.40
24586;BMP280;12743;52.262;6.172;2022-11-15T05:50:23;100226.28;;;9.46
24586;BMP280;12743;52.262;6.172;2022-11-15T05:53:07;100205.66;;;9.32
24586;BMP280;12743;52.262;6.172;2022-11-15T05:55:51;100228.91;;;9.46
24586;BMP280;12743;52.262;6.172;2022-11-15T05:58:36;100227.59;;;9.52
24586;BMP280;12743;52.262;6.172;2022-11-15T06:01:21;100229.69;;;9.59
24586;BMP280;12743;52.262;6.172;2022-11-15T06:04:05;100231.13;;;9.56
24586;BMP280;12743;52.262;6.172;2022-11-15T06:06:49;100227.06;;;9.47
24586;BMP280;12743;52.262;6.172;2022-11-15T06:09:33;100214.19;;;9.42
24586;BMP280;12743;52.262;6.172;2022-11-15T06:12:17;100227.72;;;9.56
24586;BMP280;12743;52.262;6.172;2022-11-15T06:15:02;100245.97;;;9.64
24586;BMP280;12743;52.262;6.172;2022-11-15T06:17:46;100240.97;;;9.59
24586;BMP280;12743;52.262;6.172;2022-11-15T06:20:30;100247.16;;;9.67
24586;BMP280;12743;52.262;6.172;2022-11-15T06:23:14;100244.53;;;9.67
24586;BMP280;12743;52.262;6.172;2022-11-15T06:25:59;100242.78;;;9.71
24586;BMP280;12743;52.262;6.172;2022-11-15T06:28:43;100243.81;;;9.66
24586;BMP280;12743;52.262;6.172;2022-11-15T06:31:27;100243.16;;;9.69
24586;BMP280;12743;52.262;6.172;2022-11-15T06:34:11;100230.47;;;9.59
24586;BMP280;12743;52.262;6.172;2022-11-15T06:36:55;100227.72;;;9.56
24586;BMP280;12743;52.262;6.172;2022-11-15T06:39:39;100253.28;;;9.71
24586;BMP280;12743;52.262;6.172;2022-11-15T06:42:24;100258.22;;;9.72
24586;BMP280;12743;52.262;6.172;2022-11-15T06:45:08;100260.84;;;9.72
24586;BMP280;12743;52.262;6.172;2022-11-15T06:47:52;100256.25;;;9.69
24586;BMP280;12743;52.262;6.172;2022-11-15T06:50:36;100258.53;;;9.71
24586;BMP280;12743;52.262;6.172;2022-11-15T06:53:21;100216.66;;;9.38
24586;BMP280;12743;52.262;6.172;2022-11-15T06:56:06;100262.16;;;9.66
24586;BMP280;12743;52.262;6.172;2022-11-15T06:58:50;100269.69;;;9.68
24586;BMP280;12743;52.262;6.172;2022-11-15T07:01:35;100255.38;;;9.65
24586;BMP280;12743;52.262;6.172;2022-11-15T07:04:19;100267.84;;;9.68
24586;BMP280;12743;52.262;6.172;2022-11-15T07:07:03;100271.63;;;9.71
24586;BMP280;12743;52.262;6.172;2022-11-15T07:09:47;100272.84;;;9.73
24586;BMP280;12743;52.262;6.172;2022-11-15T07:12:31;100269.59;;;9.76
24586;BMP280;12743;52.262;6.172;2022-11-15T07:15:16;100278.13;;;9.85
24586;BMP280;12743;52.262;6.172;2022-11-15T07:18:01;100284.00;;;9.82
24586;BMP280;12743;52.262;6.172;2022-11-15T07:20:45;100283.25;;;9.82
24586;BMP280;12743;52.262;6.172;2022-11-15T07:23:29;100288.25;;;9.87
24586;BMP280;12743;52.262;6.172;2022-11-15T07:26:13;100280.38;;;9.87
24586;BMP280;12743;52.262;6.172;2022-11-15T07:28:57;100282.25;;;9.86
24586;BMP280;12743;52.262;6.172;2022-11-15T07:31:42;100281.16;;;9.87
24586;BMP280;12743;52.262;6.172;2022-11-15T07:34:26;100250.66;;;9.71
24586;BMP280;12743;52.262;6.172;2022-11-15T07:37:11;100291.47;;;9.92
24586;BMP280;12743;52.262;6.172;2022-11-15T07:39:55;100282.25;;;9.86
24586;BMP280;12743;52.262;6.172;2022-11-15T07:42:39;100296.69;;;9.92
24586;BMP280;12743;52.262;6.172;2022-11-15T07:45:44;100257.44;;;9.72
24586;BMP280;12743;52.262;6.172;2022-11-15T07:48:28;100279.13;;;9.93
24586;BMP280;12743;52.262;6.172;2022-11-15T07:51:13;100263.03;;;9.82
24586;BMP280;12743;52.262;6.172;2022-11-15T07:53:58;100283.25;;;9.94
24586;BMP280;12743;52.262;6.172;2022-11-15T07:56:42;100279.94;;;9.97
24586;BMP280;12743;52.262;6.172;2022-11-15T07:59:26;100286.31;;;9.96
24586;BMP280;12743;52.262;6.172;2022-11-15T08:02:10;100289.06;;;9.99
24586;BMP280;12743;52.262;6.172;2022-11-15T08:04:55;100289.06;;;9.99
24586;BMP280;12743;52.262;6.172;2022-11-15T08:07:39;100280.28;;;9.95
24586;BMP280;12743;52.262;6.172;2022-11-15T08:10:24;100294.06;;;10.04
24586;BMP280;12743;52.262;6.172;2022-11-15T08:13:10;100292.97;;;10.05
24586;BMP280;12743;52.262;6.172;2022-11-15T08:16:01;100287.38;;;10.07
24586;BMP280;12743;52.262;6.172;2022-11-15T08:18:46;100290.00;;;10.07
24586;BMP280;12743;52.262;6.172;2022-11-15T08:21:30;100288.81;;;10.04
24586;BMP280;12743;52.262;6.172;2022-11-15T08:24:15;100295.59;;;10.05
24586;BMP280;12743;52.262;6.172;2022-11-15T08:26:59;100286.53;;;10.03
24586;BMP280;12743;52.262;6.172;2022-11-15T08:29:44;100268.06;;;9.99
24586;BMP280;12743;52.262;6.172;2022-11-15T08:32:28;100289.69;;;10.08
24586;BMP280;12743;52.262;6.172;2022-11-15T08:35:12;100286.63;;;10.06
24586;BMP280;12743;52.262;6.172;2022-11-15T08:37:56;100276.88;;;10.07
24586;BMP280;12743;52.262;6.172;2022-11-15T08:40:41;100282.25;;;10.11
24586;BMP280;12743;52.262;6.172;2022-11-15T08:43:25;100283.44;;;10.13
24586;BMP280;12743;52.262;6.172;2022-11-15T08:46:12;100280.19;;;10.16
24586;BMP280;12743;52.262;6.172;2022-11-15T08:48:56;100270.78;;;10.15
24586;BMP280;12743;52.262;6.172;2022-11-15T08:51:40;100268.06;;;10.12
24586;BMP280;12743;52.262;6.172;2022-11-15T08:54:24;100262.91;;;10.15
24586;BMP280;12743;52.262;6.172;2022-11-15T08:57:08;100251.53;;;10.11
24586;BMP280;12743;52.262;6.172;2022-11-15T08:59:53;100266.03;;;10.21
24586;BMP280;12743;52.262;6.172;2022-11-15T09:02:38;100262.78;;;10.24
24586;BMP280;12743;52.262;6.172;2022-11-15T09:05:22;100257.44;;;10.20
24586;BMP280;12743;52.262;6.172;2022-11-15T09:08:06;100241.56;;;10.17
24586;BMP280;12743;52.262;6.172;2022-11-15T09:10:51;100267.44;;;10.30
24586;BMP280;12743;52.262;6.172;2022-11-15T09:13:36;100251.72;;;10.30
24586;BMP280;12743;52.262;6.172;2022-11-15T09:16:23;100246.25;;;10.23
24586;BMP280;12743;52.262;6.172;2022-11-15T09:19:07;100264.81;;;10.30
24586;BMP280;12743;52.262;6.172;2022-11-15T09:21:51;100259.91;;;10.29
24586;BMP280;12743;52.262;6.172;2022-11-15T09:24:35;100257.63;;;10.27
24586;BMP280;12743;52.262;6.172;2022-11-15T09:27:19;100253.94;;;10.28
24586;BMP280;12743;52.262;6.172;2022-11-15T09:30:04;100252.81;;;10.29
24586;BMP280;12743;52.262;6.172;2022-11-15T09:32:49;100255.44;;;10.29
24586;BMP280;12743;52.262;6.172;2022-11-15T09:35:33;100253.56;;;10.30
24586;BMP280;12743;52.262;6.172;2022-11-15T09:38:18;100262.31;;;10.34
24586;BMP280;12743;52.262;6.172;2022-11-15T09:50:01;100228.66;;;10.24
24586;BMP280;12743;52.262;6.172;2022-11-15T09:52:33;100255.41;;;10.41
24586;BMP280;12743;52.262;6.172;2022-11-15T09:55:00;100247.97;;;10.43
24586;BMP280;12743;52.262;6.172;2022-11-15T09:57:37;100258.34;;;10.52
24586;BMP280;12743;52.262;6.172;2022-11-15T10:00:15;100253.38;;;10.62
24586;BMP280;12743;52.262;6.172;2022-11-15T10:05:20;100248.25;;;10.54
24586;BMP280;12743;52.262;6.172;2022-11-15T10:10:40;100240.34;;;10.66
24586;BMP280;12743;52.262;6.172;2022-11-15T10:13:13;100243.81;;;10.82
24586;BMP280;12743;52.262;6.172;2022-11-15T10:15:43;100245.19;;;10.79
24586;BMP280;12743;52.262;6.172;2022-11-15T10:18:16;100230.56;;;10.78
24586;BMP280;12743;52.262;6.172;2022-11-15T10:20:52;100236.56;;;10.79
24586;BMP280;12743;52.262;6.172;2022-11-15T10:23:22;100222.34;;;10.80
24586;BMP280;12743;52.262;6.172;2022-11-15T10:25:51;100220.16;;;10.82
24586;BMP280;12743;52.262;6.172;2022-11-15T10:28:28;100215.84;;;10.90
24586;BMP280;12743;52.262;6.172;2022-11-15T10:30:59;100220.44;;;10.93
24586;BMP280;12743;52.262;6.172;2022-11-15T10:33:37;100210.75;;;10.97
24586;BMP280;12743;52.262;6.172;2022-11-15T10:38:33;100217.44;;;10.94
24586;BMP280;12743;52.262;6.172;2022-11-15T10:41:12;100213.50;;;11.00
24586;BMP280;12743;52.262;6.172;2022-11-15T10:43:38;100204.50;;;11.01
24586;BMP280;12743;52.262;6.172;2022-11-15T10:46:19;100206.19;;;11.09
24586;BMP280;12743;52.262;6.172;2022-11-15T10:48:45;100207.91;;;11.17
24586;BMP280;12743;52.262;6.172;2022-11-15T10:51:22;100200.19;;;11.24
24586;BMP280;12743;52.262;6.172;2022-11-15T10:53:51;100202.28;;;11.19
24586;BMP280;12743;52.262;6.172;2022-11-15T10:56:20;100207.50;;;11.15
24586;BMP280;12743;52.262;6.172;2022-11-15T10:58:51;100200.13;;;11.05
24586;BMP280;12743;52.262;6.172;2022-11-15T11:01:28;100201.69;;;11.10
24586;BMP280;12743;52.262;6.172;2022-11-15T11:04:08;100192.28;;;11.09
24586;BMP280;12743;52.262;6.172;2022-11-15T11:06:53;100181.28;;;11.19
24586;BMP280;12743;52.262;6.172;2022-11-15T11:09:23;100178.59;;;11.15
24586;BMP280;12743;52.262;6.172;2022-11-15T11:11:50;100171.88;;;11.18
24586;BMP280;12743;52.262;6.172;2022-11-15T11:14:24;100175.53;;;11.13
24586;BMP280;12743;52.262;6.172;2022-11-15T11:17:17;100172.22;;;11.16
24586;BMP280;12743;52.262;6.172;2022-11-15T11:23:02;100102.88;;;10.90
24586;BMP280;12743;52.262;6.172;2022-11-15T11:25:56;100148.22;;;11.18
24586;BMP280;12743;52.262;6.172;2022-11-15T11:34:33;100151.25;;;11.35
24586;BMP280;12743;52.262;6.172;2022-11-15T11:37:19;100143.22;;;11.28
24586;BMP280;12743;52.262;6.172;2022-11-15T11:40:10;100142.25;;;11.36
24586;BMP280;12743;52.262;6.172;2022-11-15T11:48:43;100139.88;;;11.47
24586;BMP280;12743;52.262;6.172;2022-11-15T11:51:10;100138.41;;;11.49
24586;BMP280;12743;52.262;6.172;2022-11-15T11:53:45;100143.56;;;11.62
24586;BMP280;12743;52.262;6.172;2022-11-15T11:56:20;100139.16;;;11.66
24586;BMP280;12743;52.262;6.172;2022-11-15T11:58:47;100123.88;;;11.56
24586;BMP280;12743;52.262;6.172;2022-11-15T12:01:30;100128.53;;;11.62
24586;BMP280;12743;52.262;6.172;2022-11-15T12:04:08;100134.38;;;11.71
24586;BMP280;12743;52.262;6.172;2022-11-15T12:06:58;100127.75;;;11.77
24586;BMP280;12743;52.262;6.172;2022-11-15T12:09:38;100128.91;;;11.80
24586;BMP280;12743;52.262;6.172;2022-11-15T12:12:32;100132.59;;;11.75
24586;BMP280;12743;52.262;6.172;2022-11-15T12:17:30;100118.72;;;11.78
24586;BMP280;12743;52.262;6.172;2022-11-15T12:20:03;100128.78;;;11.73
24586;BMP280;12743;52.262;6.172;2022-11-15T12:22:49;100123.25;;;11.78
24586;BMP280;12743;52.262;6.172;2022-11-15T12:25:24;100117.78;;;11.86
24586;BMP280;12743;52.262;6.172;2022-11-15T12:30:52;100110.91;;;11.82
24586;BMP280;12743;52.262;6.172;2022-11-15T12:33:40;100072.75;;;11.72
24586;BMP280;12743;52.262;6.172;2022-11-15T12:36:11;100093.00;;;11.87
24586;BMP280;12743;52.262;6.172;2022-11-15T12:41:22;100087.13;;;11.94
24586;BMP280;12743;52.262;6.172;2022-11-15T12:43:48;100067.56;;;11.95
24586;BMP280;12743;52.262;6.172;2022-11-15T12:46:58;100071.47;;;12.01
24586;BMP280;12743;52.262;6.172;2022-11-15T13:00:05;100047.78;;;12.01
24586;BMP280;12743;52.262;6.172;2022-11-15T13:02:47;100045.13;;;12.01
24586;BMP280;12743;52.262;6.172;2022-11-15T13:30:40;100001.41;;;11.74
24586;BMP280;12743;52.262;6.172;2022-11-15T13:33:15;99992.88;;;11.80
24586;BMP280;12743;52.262;6.172;2022-11-15T13:35:42;99998.69;;;11.70
24586;BMP280;12743;52.262;6.172;2022-11-15T13:38:18;99995.38;;;11.73
24586;BMP280;12743;52.262;6.172;2022-11-15T13:40:44;99982.66;;;11.75
24586;BMP280;12743;52.262;6.172;2022-11-15T13:46:12;99970.19;;;11.72
24586;BMP280;12743;52.262;6.172;2022-11-15T13:48:39;99969.84;;;11.55
24586;BMP280;12743;52.262;6.172;2022-11-15T13:56:40;99958.66;;;11.58
24586;BMP280;12743;52.262;6.172;2022-11-15T13:59:36;99958.34;;;11.63
24586;BMP280;12743;52.262;6.172;2022-11-15T14:02:21;99959.56;;;11.69
24586;BMP280;12743;52.262;6.172;2022-11-15T14:04:57;99955.97;;;11.77
24586;BMP280;12743;52.262;6.172;2022-11-15T14:07:25;99963.06;;;11.54
24586;BMP280;12743;52.262;6.172;2022-11-15T14:09:52;99951.25;;;11.44
24586;BMP280;12743;52.262;6.172;2022-11-15T14:14:52;99949.53;;;11.52
24586;BMP280;12743;52.262;6.172;2022-11-15T14:19:56;99950.63;;;11.51
24586;BMP280;12743;52.262;6.172;2022-11-15T14:22:24;99944.53;;;11.46
24586;BMP280;12743;52.262;6.172;2022-11-15T14:25:18;99942.47;;;11.36
24586;BMP280;12743;52.262;6.172;2022-11-15T14:28:16;99942.19;;;11.41
24586;BMP280;12743;52.262;6.172;2022-11-15T14:30:55;99946.28;;;11.39
24586;BMP280;12743;52.262;6.172;2022-11-15T14:33:29;99931.06;;;11.29
24586;BMP280;12743;52.262;6.172;2022-11-15T14:35:56;99921.84;;;11.19
24586;BMP280;12743;52.262;6.172;2022-11-15T14:38:23;99921.31;;;11.29
24586;BMP280;12743;52.262;6.172;2022-11-15T14:40:48;99923.22;;;11.32
24586;BMP280;12743;52.262;6.172;2022-11-15T14:43:14;99915.78;;;11.15
24586;BMP280;12743;52.262;6.172;2022-11-15T14:45:39;99915.34;;;11.13
24586;BMP280;12743;52.262;6.172;2022-11-15T14:48:05;99913.56;;;11.17
24586;BMP280;12743;52.262;6.172;2022-11-15T14:50:32;99906.78;;;11.16
24586;BMP280;12743;52.262;6.172;2022-11-15T14:52:58;99894.63;;;11.08
24586;BMP280;12743;52.262;6.172;2022-11-15T14:55:29;99893.78;;;11.04
24586;BMP280;12743;52.262;6.172;2022-11-15T14:57:56;99898.88;;;10.97
24586;BMP280;12743;52.262;6.172;2022-11-15T15:00:22;99893.63;;;10.97
24586;BMP280;12743;52.262;6.172;2022-11-15T15:02:48;99882.34;;;10.97
24586;BMP280;12743;52.262;6.172;2022-11-15T15:05:29;99875.53;;;10.92
24586;BMP280;12743;52.262;6.172;2022-11-15T15:07:55;99872.34;;;10.83
24586;BMP280;12743;52.262;6.172;2022-11-15T15:10:21;99851.06;;;10.69
24586;BMP280;12743;52.262;6.172;2022-11-15T15:12:47;99875.22;;;10.78
24586;BMP280;12743;52.262;6.172;2022-11-15T15:15:16;99854.91;;;10.75
24586;BMP280;12743;52.262;6.172;2022-11-15T15:17:43;99857.97;;;10.77
24586;BMP280;12743;52.262;6.172;2022-11-15T15:20:09;99842.13;;;10.73
24586;BMP280;12743;52.262;6.172;2022-11-15T15:22:35;99846.28;;;10.74
24586;BMP280;12743;52.262;6.172;2022-11-15T15:25:01;99839.84;;;10.72
24586;BMP280;12743;52.262;6.172;2022-11-15T15:27:26;99840.94;;;10.71
24586;BMP280;12743;52.262;6.172;2022-11-15T15:29:51;99837.63;;;10.74
24586;BMP280;12743;52.262;6.172;2022-11-15T15:32:17;99787.44;;;10.41
24586;BMP280;12743;52.262;6.172;2022-11-15T15:34:42;99824.09;;;10.72
24586;BMP280;12743;52.262;6.172;2022-11-15T15:37:23;99825.28;;;10.74
24586;BMP280;12743;52.262;6.172;2022-11-15T15:39:50;99819.16;;;10.70
24586;BMP280;12743;52.262;6.172;2022-11-15T15:42:16;99811.28;;;10.70
24586;BMP280;12743;52.262;6.172;2022-11-15T15:44:41;99808.59;;;10.67
24586;BMP280;12743;52.262;6.172;2022-11-15T15:47:16;99809.84;;;10.73
24586;BMP280;12743;52.262;6.172;2022-11-15T15:49:41;99803.34;;;10.67
24586;BMP280;12743;52.262;6.172;2022-11-15T15:52:07;99801.53;;;10.71
24586;BMP280;12743;52.262;6.172;2022-11-15T15:54:32;99794.72;;;10.66
24586;BMP280;12743;52.262;6.172;2022-11-15T15:56:58;99798.16;;;10.70
24586;BMP280;12743;52.262;6.172;2022-11-15T15:59:23;99783.03;;;10.64
24586;BMP280;12743;52.262;6.172;2022-11-15T16:01:48;99794.75;;;10.70
24586;BMP280;12743;52.262;6.172;2022-11-15T16:04:14;99784.69;;;10.72
24586;BMP280;12743;52.262;6.172;2022-11-15T16:06:40;99781.31;;;10.71
24586;BMP280;12743;52.262;6.172;2022-11-15T16:09:15;99770.13;;;10.74
24586;BMP280;12743;52.262;6.172;2022-11-15T16:11:41;99776.75;;;10.68
24586;BMP280;12743;52.262;6.172;2022-11-15T16:14:08;99773.38;;;10.68
24586;BMP280;12743;52.262;6.172;2022-11-15T16:16:34;99761.00;;;10.68
24586;BMP280;12743;52.262;6.172;2022-11-15T16:18:59;99778.19;;;10.66
24586;BMP280;12743;52.262;6.172;2022-11-15T16:21:26;99756.78;;;10.64
24586;BMP280;12743;52.262;6.172;2022-11-15T16:23:52;99760.25;;;10.68
24586;BMP280;12743;52.262;6.172;2022-11-15T16:26:36;99772.41;;;10.76
24586;BMP280;12743;52.262;6.172;2022-11-15T16:29:02;99759.25;;;10.76
24586;BMP280;12743;52.262;6.172;2022-11-15T16:31:27;99754.00;;;10.76
24586;BMP280;12743;52.262;6.172;2022-11-15T16:33:53;99758.16;;;10.77
24586;BMP280;12743;52.262;6.172;2022-11-15T16:36:21;99749.25;;;10.82
24586;BMP280;12743;52.262;6.172;2022-11-15T16:38:46;99740.06;;;10.72
24586;BMP280;12743;52.262;6.172;2022-11-15T16:41:12;99749.66;;;10.84
24586;BMP280;12743;52.262;6.172;2022-11-15T16:43:37;99754.31;;;10.94
24586;BMP280;12743;52.262;6.172;2022-11-15T16:46:15;99752.09;;;10.96
24586;BMP280;12743;52.262;6.172;2022-11-15T16:48:41;99739.59;;;10.89
24586;BMP280;12743;52.262;6.172;2022-11-15T16:51:07;99729.78;;;10.86
24586;BMP280;12743;52.262;6.172;2022-11-15T16:53:32;99717.16;;;10.72
24586;BMP280;12743;52.262;6.172;2022-11-15T16:55:58;99751.25;;;10.88
24586;BMP280;12743;52.262;6.172;2022-11-15T16:58:23;99720.22;;;10.74
24586;BMP280;12743;52.262;6.172;2022-11-15T17:00:50;99747.22;;;10.94
24586;BMP280;12743;52.262;6.172;2022-11-15T17:03:16;99737.75;;;10.90
24586;BMP280;12743;52.262;6.172;2022-11-15T17:05:41;99724.91;;;10.85
24586;BMP280;12743;52.262;6.172;2022-11-15T17:08:07;99728.47;;;10.96
24586;BMP280;12743;52.262;6.172;2022-11-15T17:10:33;99726.97;;;10.95
24586;BMP280;12743;52.262;6.172;2022-11-15T17:12:58;99731.44;;;10.94